sensor_id;sensor_type;location;lat;lon;timestamp;P1;durP1;ratioP1;P2;durP2;ratioP2
16856;SDS011;8544;51.312;12.276;2022-07-19T00:00:45;1.40;;;1.40;;
16856;SDS011;8544;51.312;12.276;2022-07-19T00:03:14;1.13;;;1.13;;
16856;SDS011;8544;51.312;12.276;2022-07-19T00:05:43;1.10;;;1.10;;
16856;SDS011;8544;51.312;12.276;2022-07-19T00:08:11;1.03;;;1.03;;
16856;SDS011;8544;51.312;12.276;2022-07-19T00:10:40;1.00;;;1.00;;
16856;SDS011;8544;51.312;12.276;2022-07-19T00:13:08;1.00;;;1.00;;
16856;SDS011;8544;51.312;12.276;2022-07-19T00:15:36;1.00;;;1.00;;
16856;SDS011;8544;51.312;12.276;2022-07-19T00:18:05;1.40;;;1.40;;
16856;SDS011;8544;51.312;12.276;2022-07-19T00:20:33;1.17;;;1.17;;
16856;SDS011;8544;51.312;12.276;2022-07-19T00:23:01;1.03;;;1.03;;
16856;SDS011;8544;51.312;12.276;2022-07-19T00:25:29;1.57;;;1.33;;
16856;SDS011;8544;51.312;12.276;2022-07-19T00:27:59;1.40;;;1.40;;
16856;SDS011;8544;51.312;12.276;2022-07-19T00:30:26;1.43;;;1.43;;
16856;SDS011;8544;51.312;12.276;2022-07-19T00:32:54;0.90;;;0.90;;
16856;SDS011;8544;51.312;12.276;2022-07-19T00:35:22;1.30;;;1.30;;
16856;SDS011;8544;51.312;12.276;2022-07-19T00:37:50;1.20;;;1.20;;
16856;SDS011;8544;51.312;12.276;2022-07-19T00:40:20;1.10;;;1.10;;
16856;SDS011;8544;51.312;12.276;2022-07-19T00:42:49;1.07;;;1.07;;
16856;SDS011;8544;51.312;12.276;2022-07-19T00:45:20;1.10;;;1.10;;
16856;SDS011;8544;51.312;12.276;2022-07-19T00:47:48;1.13;;;1.13;;
16856;SDS011;8544;51.312;12.276;2022-07-19T00:50:17;0.90;;;0.90;;
16856;SDS011;8544;51.312;12.276;2022-07-19T00:52:45;1.00;;;1.00;;
16856;SDS011;8544;51.312;12.276;2022-07-19T00:55:16;0.93;;;0.93;;
16856;SDS011;8544;51.312;12.276;2022-07-19T00:57:45;1.13;;;1.13;;
16856;SDS011;8544;51.312;12.276;2022-07-19T01:00:14;0.93;;;0.93;;
16856;SDS011;8544;51.312;12.276;2022-07-19T01:02:45;0.80;;;0.80;;
16856;SDS011;8544;51.312;12.276;2022-07-19T01:05:14;0.90;;;0.90;;
16856;SDS011;8544;51.312;12.276;2022-07-19T01:07:42;1.00;;;1.00;;
16856;SDS011;8544;51.312;12.276;2022-07-19T01:10:11;0.90;;;0.90;;
16856;SDS011;8544;51.312;12.276;2022-07-19T01:12:41;0.83;;;0.83;;
16856;SDS011;8544;51.312;12.276;2022-07-19T01:15:13;1.00;;;1.00;;
16856;SDS011;8544;51.312;12.276;2022-07-19T01:17:43;1.10;;;1.10;;
16856;SDS011;8544;51.312;12.276;2022-07-19T01:20:12;1.00;;;1.00;;
16856;SDS011;8544;51.312;12.276;2022-07-19T01:22:42;1.17;;;1.17;;
16856;SDS011;8544;51.312;12.276;2022-07-19T01:25:11;1.00;;;1.00;;
16856;SDS011;8544;51.312;12.276;2022-07-19T01:27:40;1.00;;;1.00;;
16856;SDS011;8544;51.312;12.276;2022-07-19T01:30:10;0.90;;;0.90;;
16856;SDS011;8544;51.312;12.276;2022-07-19T01:32:40;1.53;;;1.50;;
16856;SDS011;8544;51.312;12.276;2022-07-19T01:35:08;1.50;;;1.50;;
16856;SDS011;8544;51.312;12.276;2022-07-19T01:37:37;1.17;;;1.17;;
16856;SDS011;8544;51.312;12.276;2022-07-19T01:40:07;0.97;;;0.97;;
16856;SDS011;8544;51.312;12.276;2022-07-19T01:42:37;1.00;;;1.00;;
16856;SDS011;8544;51.312;12.276;2022-07-19T01:45:06;1.00;;;1.00;;
16856;SDS011;8544;51.312;12.276;2022-07-19T01:47:35;3.00;;;1.63;;
16856;SDS011;8544;51.312;12.276;2022-07-19T01:50:04;1.00;;;1.00;;
16856;SDS011;8544;51.312;12.276;2022-07-19T01:52:33;0.90;;;0.90;;
16856;SDS011;8544;51.312;12.276;2022-07-19T01:55:01;1.33;;;1.33;;
16856;SDS011;8544;51.312;12.276;2022-07-19T01:57:31;1.23;;;1.23;;
16856;SDS011;8544;51.312;12.276;2022-07-19T01:59:59;1.17;;;1.17;;
16856;SDS011;8544;51.312;12.276;2022-07-19T02:02:27;1.40;;;1.40;;
16856;SDS011;8544;51.312;12.276;2022-07-19T02:04:55;0.97;;;0.97;;
16856;SDS011;8544;51.312;12.276;2022-07-19T02:07:23;1.10;;;1.10;;
16856;SDS011;8544;51.312;12.276;2022-07-19T02:09:51;1.23;;;1.23;;
16856;SDS011;8544;51.312;12.276;2022-07-19T02:12:19;1.77;;;1.67;;
16856;SDS011;8544;51.312;12.276;2022-07-19T02:14:48;1.80;;;1.60;;
16856;SDS011;8544;51.312;12.276;2022-07-19T02:17:16;2.40;;;1.97;;
16856;SDS011;8544;51.312;12.276;2022-07-19T02:19:44;2.33;;;1.70;;
16856;SDS011;8544;51.312;12.276;2022-07-19T02:22:12;0.90;;;0.90;;
16856;SDS011;8544;51.312;12.276;2022-07-19T02:24:40;1.10;;;1.10;;
16856;SDS011;8544;51.312;12.276;2022-07-19T02:27:09;1.33;;;1.30;;
16856;SDS011;8544;51.312;12.276;2022-07-19T02:29:38;1.17;;;1.17;;
16856;SDS011;8544;51.312;12.276;2022-07-19T02:32:07;0.90;;;0.90;;
16856;SDS011;8544;51.312;12.276;2022-07-19T02:34:35;1.30;;;1.30;;
16856;SDS011;8544;51.312;12.276;2022-07-19T02:37:03;1.00;;;1.00;;
16856;SDS011;8544;51.312;12.276;2022-07-19T02:39:31;1.10;;;1.10;;
16856;SDS011;8544;51.312;12.276;2022-07-19T02:41:59;1.00;;;1.00;;
16856;SDS011;8544;51.312;12.276;2022-07-19T02:44:27;1.40;;;1.40;;
16856;SDS011;8544;51.312;12.276;2022-07-19T02:46:55;1.10;;;1.10;;
16856;SDS011;8544;51.312;12.276;2022-07-19T02:49:24;1.10;;;1.10;;
16856;SDS011;8544;51.312;12.276;2022-07-19T02:51:52;0.93;;;0.93;;
16856;SDS011;8544;51.312;12.276;2022-07-19T02:54:20;1.40;;;1.40;;
16856;SDS011;8544;51.312;12.276;2022-07-19T02:56:48;1.13;;;1.13;;
16856;SDS011;8544;51.312;12.276;2022-07-19T02:59:16;2.23;;;2.03;;
16856;SDS011;8544;51.312;12.276;2022-07-19T03:01:45;1.27;;;1.27;;
16856;SDS011;8544;51.312;12.276;2022-07-19T03:04:13;1.30;;;1.30;;
16856;SDS011;8544;51.312;12.276;2022-07-19T03:06:42;1.00;;;1.00;;
16856;SDS011;8544;51.312;12.276;2022-07-19T03:09:10;1.13;;;1.13;;
16856;SDS011;8544;51.312;12.276;2022-07-19T03:11:39;1.70;;;1.70;;
16856;SDS011;8544;51.312;12.276;2022-07-19T03:14:07;1.67;;;1.57;;
16856;SDS011;8544;51.312;12.276;2022-07-19T03:16:35;1.30;;;1.30;;
16856;SDS011;8544;51.312;12.276;2022-07-19T03:19:03;1.23;;;1.23;;
16856;SDS011;8544;51.312;12.276;2022-07-19T03:21:31;1.00;;;1.00;;
16856;SDS011;8544;51.312;12.276;2022-07-19T03:24:01;0.93;;;0.93;;
16856;SDS011;8544;51.312;12.276;2022-07-19T03:26:29;1.40;;;1.40;;
16856;SDS011;8544;51.312;12.276;2022-07-19T03:28:57;1.37;;;1.30;;
16856;SDS011;8544;51.312;12.276;2022-07-19T03:31:25;0.90;;;0.90;;
16856;SDS011;8544;51.312;12.276;2022-07-19T03:33:53;1.30;;;1.30;;
16856;SDS011;8544;51.312;12.276;2022-07-19T03:36:21;1.10;;;1.10;;
16856;SDS011;8544;51.312;12.276;2022-07-19T03:38:49;1.07;;;1.07;;
16856;SDS011;8544;51.312;12.276;2022-07-19T03:41:18;1.00;;;1.00;;
16856;SDS011;8544;51.312;12.276;2022-07-19T03:43:46;1.50;;;1.50;;
16856;SDS011;8544;51.312;12.276;2022-07-19T03:46:14;2.03;;;1.93;;
16856;SDS011;8544;51.312;12.276;2022-07-19T03:48:42;1.00;;;1.00;;
16856;SDS011;8544;51.312;12.276;2022-07-19T03:51:10;1.53;;;1.53;;
16856;SDS011;8544;51.312;12.276;2022-07-19T03:53:38;1.73;;;1.40;;
16856;SDS011;8544;51.312;12.276;2022-07-19T03:56:06;1.60;;;1.50;;
16856;SDS011;8544;51.312;12.276;2022-07-19T03:58:36;2.93;;;1.43;;
16856;SDS011;8544;51.312;12.276;2022-07-19T04:01:04;1.20;;;1.20;;
16856;SDS011;8544;51.312;12.276;2022-07-19T04:03:35;1.47;;;1.47;;
16856;SDS011;8544;51.312;12.276;2022-07-19T04:06:04;1.30;;;1.30;;
16856;SDS011;8544;51.312;12.276;2022-07-19T04:08:32;2.10;;;1.93;;
16856;SDS011;8544;51.312;12.276;2022-07-19T04:11:02;1.53;;;1.53;;
16856;SDS011;8544;51.312;12.276;2022-07-19T04:13:31;1.50;;;1.50;;
16856;SDS011;8544;51.312;12.276;2022-07-19T04:16:01;1.90;;;1.90;;
16856;SDS011;8544;51.312;12.276;2022-07-19T04:18:31;1.60;;;1.60;;
16856;SDS011;8544;51.312;12.276;2022-07-19T04:20:59;2.50;;;2.40;;
16856;SDS011;8544;51.312;12.276;2022-07-19T04:23:26;2.30;;;2.20;;
16856;SDS011;8544;51.312;12.276;2022-07-19T04:25:54;2.70;;;2.60;;
16856;SDS011;8544;51.312;12.276;2022-07-19T04:28:22;2.67;;;2.67;;
16856;SDS011;8544;51.312;12.276;2022-07-19T04:30:50;2.70;;;2.70;;
16856;SDS011;8544;51.312;12.276;2022-07-19T04:33:20;2.40;;;2.40;;
16856;SDS011;8544;51.312;12.276;2022-07-19T04:35:48;2.40;;;2.40;;
16856;SDS011;8544;51.312;12.276;2022-07-19T04:38:16;3.47;;;3.30;;
16856;SDS011;8544;51.312;12.276;2022-07-19T04:40:44;4.00;;;3.80;;
16856;SDS011;8544;51.312;12.276;2022-07-19T04:43:12;3.72;;;3.63;;
16856;SDS011;8544;51.312;12.276;2022-07-19T04:45:40;3.83;;;3.70;;
16856;SDS011;8544;51.312;12.276;2022-07-19T04:48:08;2.40;;;2.40;;
16856;SDS011;8544;51.312;12.276;2022-07-19T04:50:37;3.05;;;2.95;;
16856;SDS011;8544;51.312;12.276;2022-07-19T04:53:05;2.50;;;2.50;;
16856;SDS011;8544;51.312;12.276;2022-07-19T04:55:35;3.22;;;3.13;;
16856;SDS011;8544;51.312;12.276;2022-07-19T04:58:04;3.83;;;3.72;;
16856;SDS011;8544;51.312;12.276;2022-07-19T05:00:32;3.20;;;3.20;;
16856;SDS011;8544;51.312;12.276;2022-07-19T05:03:00;3.45;;;3.15;;
16856;SDS011;8544;51.312;12.276;2022-07-19T05:05:28;3.05;;;2.95;;
16856;SDS011;8544;51.312;12.276;2022-07-19T05:07:57;2.70;;;2.70;;
16856;SDS011;8544;51.312;12.276;2022-07-19T05:10:25;2.72;;;2.72;;
16856;SDS011;8544;51.312;12.276;2022-07-19T05:12:53;5.65;;;3.10;;
16856;SDS011;8544;51.312;12.276;2022-07-19T05:15:21;3.03;;;2.92;;
16856;SDS011;8544;51.312;12.276;2022-07-19T05:17:49;2.30;;;2.30;;
16856;SDS011;8544;51.312;12.276;2022-07-19T05:20:17;2.30;;;2.30;;
16856;SDS011;8544;51.312;12.276;2022-07-19T05:22:45;2.35;;;2.35;;
16856;SDS011;8544;51.312;12.276;2022-07-19T05:25:15;2.00;;;2.00;;
16856;SDS011;8544;51.312;12.276;2022-07-19T05:27:44;2.50;;;2.40;;
16856;SDS011;8544;51.312;12.276;2022-07-19T05:30:12;2.70;;;2.70;;
16856;SDS011;8544;51.312;12.276;2022-07-19T05:32:40;3.13;;;3.03;;
16856;SDS011;8544;51.312;12.276;2022-07-19T05:35:08;3.63;;;3.53;;
16856;SDS011;8544;51.312;12.276;2022-07-19T05:37:36;3.40;;;3.30;;
16856;SDS011;8544;51.312;12.276;2022-07-19T05:40:05;3.03;;;3.03;;
16856;SDS011;8544;51.312;12.276;2022-07-19T05:42:35;2.50;;;2.50;;
16856;SDS011;8544;51.312;12.276;2022-07-19T05:45:03;2.72;;;2.63;;
16856;SDS011;8544;51.312;12.276;2022-07-19T05:47:31;2.78;;;2.58;;
16856;SDS011;8544;51.312;12.276;2022-07-19T05:49:59;6.72;;;2.47;;
16856;SDS011;8544;51.312;12.276;2022-07-19T05:52:27;3.22;;;3.13;;
16856;SDS011;8544;51.312;12.276;2022-07-19T05:55:03;2.72;;;2.65;;
16856;SDS011;8544;51.312;12.276;2022-07-19T05:57:31;3.22;;;3.13;;
16856;SDS011;8544;51.312;12.276;2022-07-19T06:00:00;3.28;;;3.22;;
16856;SDS011;8544;51.312;12.276;2022-07-19T06:02:29;2.92;;;2.92;;
16856;SDS011;8544;51.312;12.276;2022-07-19T06:04:56;2.88;;;2.67;;
16856;SDS011;8544;51.312;12.276;2022-07-19T06:07:24;2.40;;;2.30;;
16856;SDS011;8544;51.312;12.276;2022-07-19T06:09:52;2.15;;;2.15;;
16856;SDS011;8544;51.312;12.276;2022-07-19T06:12:19;2.20;;;2.20;;
16856;SDS011;8544;51.312;12.276;2022-07-19T06:14:47;2.30;;;2.22;;
16856;SDS011;8544;51.312;12.276;2022-07-19T06:17:17;3.08;;;2.92;;
16856;SDS011;8544;51.312;12.276;2022-07-19T06:19:44;2.00;;;2.00;;
16856;SDS011;8544;51.312;12.276;2022-07-19T06:22:12;1.80;;;1.80;;
16856;SDS011;8544;51.312;12.276;2022-07-19T06:24:40;2.15;;;2.15;;
16856;SDS011;8544;51.312;12.276;2022-07-19T06:27:08;2.53;;;2.47;;
16856;SDS011;8544;51.312;12.276;2022-07-19T06:29:36;2.90;;;2.80;;
16856;SDS011;8544;51.312;12.276;2022-07-19T06:32:04;2.13;;;2.13;;
16856;SDS011;8544;51.312;12.276;2022-07-19T06:34:33;2.58;;;2.17;;
16856;SDS011;8544;51.312;12.276;2022-07-19T06:37:01;2.40;;;2.40;;
16856;SDS011;8544;51.312;12.276;2022-07-19T06:39:29;1.90;;;1.90;;
16856;SDS011;8544;51.312;12.276;2022-07-19T06:41:57;2.20;;;2.20;;
16856;SDS011;8544;51.312;12.276;2022-07-19T06:44:25;2.08;;;2.08;;
16856;SDS011;8544;51.312;12.276;2022-07-19T06:46:52;5.57;;;2.95;;
16856;SDS011;8544;51.312;12.276;2022-07-19T06:49:21;2.38;;;2.22;;
16856;SDS011;8544;51.312;12.276;2022-07-19T06:51:50;2.55;;;2.45;;
16856;SDS011;8544;51.312;12.276;2022-07-19T06:54:18;1.67;;;1.67;;
16856;SDS011;8544;51.312;12.276;2022-07-19T06:56:46;1.70;;;1.70;;
16856;SDS011;8544;51.312;12.276;2022-07-19T06:59:14;1.83;;;1.83;;
16856;SDS011;8544;51.312;12.276;2022-07-19T07:01:42;2.95;;;2.13;;
16856;SDS011;8544;51.312;12.276;2022-07-19T07:04:10;1.50;;;1.50;;
16856;SDS011;8544;51.312;12.276;2022-07-19T07:06:38;1.85;;;1.85;;
16856;SDS011;8544;51.312;12.276;2022-07-19T07:09:07;1.83;;;1.83;;
16856;SDS011;8544;51.312;12.276;2022-07-19T07:11:35;2.05;;;2.03;;
16856;SDS011;8544;51.312;12.276;2022-07-19T07:14:03;1.83;;;1.83;;
16856;SDS011;8544;51.312;12.276;2022-07-19T07:16:31;1.83;;;1.83;;
16856;SDS011;8544;51.312;12.276;2022-07-19T07:18:59;2.50;;;2.50;;
16856;SDS011;8544;51.312;12.276;2022-07-19T07:21:27;2.83;;;2.72;;
16856;SDS011;8544;51.312;12.276;2022-07-19T07:23:56;2.08;;;2.08;;
16856;SDS011;8544;51.312;12.276;2022-07-19T07:26:26;1.60;;;1.60;;
16856;SDS011;8544;51.312;12.276;2022-07-19T07:28:53;2.10;;;2.00;;
16856;SDS011;8544;51.312;12.276;2022-07-19T07:31:21;2.50;;;2.40;;
16856;SDS011;8544;51.312;12.276;2022-07-19T07:33:49;2.03;;;2.03;;
16856;SDS011;8544;51.312;12.276;2022-07-19T07:36:17;2.10;;;2.10;;
16856;SDS011;8544;51.312;12.276;2022-07-19T07:38:45;2.25;;;2.25;;
16856;SDS011;8544;51.312;12.276;2022-07-19T07:41:13;1.83;;;1.83;;
16856;SDS011;8544;51.312;12.276;2022-07-19T07:44:03;3.70;;;2.45;;
16856;SDS011;8544;51.312;12.276;2022-07-19T07:46:31;2.42;;;2.33;;
16856;SDS011;8544;51.312;12.276;2022-07-19T07:48:59;2.45;;;2.45;;
16856;SDS011;8544;51.312;12.276;2022-07-19T07:51:33;1.98;;;1.98;;
16856;SDS011;8544;51.312;12.276;2022-07-19T07:54:11;9.40;;;9.00;;
16856;SDS011;8544;51.312;12.276;2022-07-19T07:56:39;10.25;;;9.85;;
16856;SDS011;8544;51.312;12.276;2022-07-19T07:59:08;8.55;;;8.25;;
16856;SDS011;8544;51.312;12.276;2022-07-19T08:01:36;12.07;;;11.55;;
16856;SDS011;8544;51.312;12.276;2022-07-19T08:04:06;20.20;;;19.20;;
16856;SDS011;8544;51.312;12.276;2022-07-19T08:06:33;24.60;;;23.35;;
16856;SDS011;8544;51.312;12.276;2022-07-19T08:09:02;23.05;;;21.85;;
16856;SDS011;8544;51.312;12.276;2022-07-19T08:11:30;25.17;;;23.92;;
16856;SDS011;8544;51.312;12.276;2022-07-19T08:13:59;24.52;;;23.27;;
16856;SDS011;8544;51.312;12.276;2022-07-19T08:16:29;28.92;;;27.42;;
16856;SDS011;8544;51.312;12.276;2022-07-19T08:18:57;27.50;;;26.10;;
16856;SDS011;8544;51.312;12.276;2022-07-19T08:21:25;25.08;;;23.83;;
16856;SDS011;8544;51.312;12.276;2022-07-19T08:23:53;22.83;;;21.73;;
16856;SDS011;8544;51.312;12.276;2022-07-19T08:26:21;29.23;;;27.63;;
16856;SDS011;8544;51.312;12.276;2022-07-19T08:28:49;26.17;;;24.85;;
16856;SDS011;8544;51.312;12.276;2022-07-19T08:31:16;22.90;;;21.77;;
16856;SDS011;8544;51.312;12.276;2022-07-19T08:33:46;29.02;;;27.30;;
16856;SDS011;8544;51.312;12.276;2022-07-19T08:36:14;28.30;;;26.83;;
16856;SDS011;8544;51.312;12.276;2022-07-19T08:38:42;27.60;;;26.20;;
16856;SDS011;8544;51.312;12.276;2022-07-19T08:41:10;20.50;;;19.50;;
16856;SDS011;8544;51.312;12.276;2022-07-19T08:43:40;19.63;;;18.63;;
16856;SDS011;8544;51.312;12.276;2022-07-19T08:46:09;16.45;;;15.65;;
16856;SDS011;8544;51.312;12.276;2022-07-19T08:48:37;17.48;;;16.65;;
16856;SDS011;8544;51.312;12.276;2022-07-19T08:51:14;22.25;;;21.15;;
16856;SDS011;8544;51.312;12.276;2022-07-19T08:53:45;17.70;;;16.90;;
16856;SDS011;8544;51.312;12.276;2022-07-19T08:56:13;19.05;;;18.13;;
16856;SDS011;8544;51.312;12.276;2022-07-19T08:58:59;17.65;;;16.80;;
16856;SDS011;8544;51.312;12.276;2022-07-19T09:01:27;21.30;;;20.27;;
16856;SDS011;8544;51.312;12.276;2022-07-19T09:04:05;20.55;;;19.55;;
16856;SDS011;8544;51.312;12.276;2022-07-19T09:06:39;19.40;;;18.40;;
16856;SDS011;8544;51.312;12.276;2022-07-19T09:09:09;17.48;;;16.67;;
16856;SDS011;8544;51.312;12.276;2022-07-19T09:11:39;20.23;;;18.15;;
16856;SDS011;8544;51.312;12.276;2022-07-19T09:14:15;16.25;;;15.52;;
16856;SDS011;8544;51.312;12.276;2022-07-19T09:16:51;17.05;;;16.25;;
16856;SDS011;8544;51.312;12.276;2022-07-19T09:19:34;15.95;;;15.15;;
16856;SDS011;8544;51.312;12.276;2022-07-19T09:22:05;18.33;;;17.45;;
16856;SDS011;8544;51.312;12.276;2022-07-19T09:24:35;22.65;;;21.48;;
16856;SDS011;8544;51.312;12.276;2022-07-19T09:27:05;25.58;;;24.27;;
16856;SDS011;8544;51.312;12.276;2022-07-19T09:29:36;24.17;;;22.98;;
16856;SDS011;8544;51.312;12.276;2022-07-19T09:32:07;19.63;;;18.73;;
16856;SDS011;8544;51.312;12.276;2022-07-19T09:34:38;22.52;;;21.42;;
16856;SDS011;8544;51.312;12.276;2022-07-19T09:37:09;24.45;;;22.92;;
16856;SDS011;8544;51.312;12.276;2022-07-19T09:39:41;19.98;;;18.98;;
16856;SDS011;8544;51.312;12.276;2022-07-19T09:42:13;16.85;;;16.05;;
16856;SDS011;8544;51.312;12.276;2022-07-19T09:44:43;14.98;;;14.30;;
16856;SDS011;8544;51.312;12.276;2022-07-19T09:47:12;14.27;;;13.68;;
16856;SDS011;8544;51.312;12.276;2022-07-19T09:49:40;18.30;;;17.40;;
16856;SDS011;8544;51.312;12.276;2022-07-19T09:52:10;16.88;;;16.08;;
16856;SDS011;8544;51.312;12.276;2022-07-19T09:54:39;17.65;;;16.85;;
16856;SDS011;8544;51.312;12.276;2022-07-19T09:57:07;17.63;;;16.58;;
16856;SDS011;8544;51.312;12.276;2022-07-19T09:59:37;16.77;;;15.98;;
16856;SDS011;8544;51.312;12.276;2022-07-19T10:02:13;15.77;;;15.07;;
16856;SDS011;8544;51.312;12.276;2022-07-19T10:04:43;15.02;;;14.27;;
16856;SDS011;8544;51.312;12.276;2022-07-19T10:07:12;16.10;;;15.40;;
16856;SDS011;8544;51.312;12.276;2022-07-19T10:09:42;17.02;;;16.23;;
16856;SDS011;8544;51.312;12.276;2022-07-19T10:12:11;19.73;;;18.75;;
16856;SDS011;8544;51.312;12.276;2022-07-19T10:14:39;18.30;;;17.27;;
16856;SDS011;8544;51.312;12.276;2022-07-19T10:19:54;13.25;;;12.65;;
16856;SDS011;8544;51.312;12.276;2022-07-19T10:22:25;11.80;;;11.30;;
16856;SDS011;8544;51.312;12.276;2022-07-19T10:24:55;11.48;;;10.88;;
16856;SDS011;8544;51.312;12.276;2022-07-19T10:27:38;11.90;;;11.40;;
16856;SDS011;8544;51.312;12.276;2022-07-19T10:30:21;13.80;;;13.20;;
16856;SDS011;8544;51.312;12.276;2022-07-19T10:32:52;14.07;;;13.40;;
16856;SDS011;8544;51.312;12.276;2022-07-19T10:35:22;14.32;;;13.63;;
16856;SDS011;8544;51.312;12.276;2022-07-19T10:38:06;13.80;;;13.20;;
16856;SDS011;8544;51.312;12.276;2022-07-19T10:40:39;13.80;;;13.20;;
16856;SDS011;8544;51.312;12.276;2022-07-19T10:43:09;12.10;;;11.50;;
16856;SDS011;8544;51.312;12.276;2022-07-19T10:45:39;11.98;;;11.48;;
16856;SDS011;8544;51.312;12.276;2022-07-19T10:48:11;12.70;;;12.15;;
16856;SDS011;8544;51.312;12.276;2022-07-19T10:50:46;14.13;;;13.52;;
16856;SDS011;8544;51.312;12.276;2022-07-19T10:56:22;16.20;;;15.45;;
16856;SDS011;8544;51.312;12.276;2022-07-19T10:58:53;18.70;;;17.80;;
16856;SDS011;8544;51.312;12.276;2022-07-19T11:01:23;16.83;;;16.02;;
16856;SDS011;8544;51.312;12.276;2022-07-19T11:03:54;16.23;;;15.45;;
16856;SDS011;8544;51.312;12.276;2022-07-19T11:06:49;21.85;;;20.20;;
16856;SDS011;8544;51.312;12.276;2022-07-19T11:09:18;23.55;;;22.38;;
16856;SDS011;8544;51.312;12.276;2022-07-19T11:11:52;24.52;;;23.33;;
16856;SDS011;8544;51.312;12.276;2022-07-19T11:14:20;22.88;;;21.77;;
16856;SDS011;8544;51.312;12.276;2022-07-19T11:16:48;19.65;;;18.65;;
16856;SDS011;8544;51.312;12.276;2022-07-19T11:19:27;18.13;;;17.23;;
16856;SDS011;8544;51.312;12.276;2022-07-19T11:21:56;15.73;;;15.02;;
16856;SDS011;8544;51.312;12.276;2022-07-19T11:24:28;15.10;;;14.40;;
16856;SDS011;8544;51.312;12.276;2022-07-19T11:26:57;16.00;;;15.30;;
16856;SDS011;8544;51.312;12.276;2022-07-19T11:32:22;12.82;;;12.27;;
16856;SDS011;8544;51.312;12.276;2022-07-19T11:34:54;13.73;;;13.10;;
16856;SDS011;8544;51.312;12.276;2022-07-19T11:37:23;16.52;;;15.73;;
16856;SDS011;8544;51.312;12.276;2022-07-19T11:39:52;15.65;;;14.88;;
16856;SDS011;8544;51.312;12.276;2022-07-19T11:42:32;16.92;;;16.13;;
16856;SDS011;8544;51.312;12.276;2022-07-19T11:45:23;22.20;;;21.00;;
16856;SDS011;8544;51.312;12.276;2022-07-19T11:47:53;15.07;;;14.38;;
16856;SDS011;8544;51.312;12.276;2022-07-19T11:50:25;20.02;;;19.02;;
16856;SDS011;8544;51.312;12.276;2022-07-19T11:52:54;23.77;;;22.58;;
16856;SDS011;8544;51.312;12.276;2022-07-19T11:55:24;24.30;;;23.10;;
16856;SDS011;8544;51.312;12.276;2022-07-19T11:57:55;26.77;;;25.38;;
16856;SDS011;8544;51.312;12.276;2022-07-19T12:00:24;28.38;;;26.70;;
16856;SDS011;8544;51.312;12.276;2022-07-19T12:02:56;24.23;;;22.75;;
16856;SDS011;8544;51.312;12.276;2022-07-19T12:05:30;21.55;;;20.52;;
16856;SDS011;8544;51.312;12.276;2022-07-19T12:08:00;20.23;;;19.23;;
16856;SDS011;8544;51.312;12.276;2022-07-19T12:10:34;22.42;;;21.33;;
16856;SDS011;8544;51.312;12.276;2022-07-19T12:13:05;21.83;;;20.73;;
16856;SDS011;8544;51.312;12.276;2022-07-19T12:15:45;20.35;;;19.35;;
16856;SDS011;8544;51.312;12.276;2022-07-19T12:18:18;17.77;;;16.98;;
16856;SDS011;8544;51.312;12.276;2022-07-19T12:24:12;31.80;;;30.20;;
16856;SDS011;8544;51.312;12.276;2022-07-19T12:26:43;31.30;;;29.48;;
16856;SDS011;8544;51.312;12.276;2022-07-19T12:29:23;36.00;;;34.10;;
16856;SDS011;8544;51.312;12.276;2022-07-19T12:31:55;30.90;;;29.15;;
16856;SDS011;8544;51.312;12.276;2022-07-19T12:34:24;29.40;;;27.90;;
16856;SDS011;8544;51.312;12.276;2022-07-19T12:36:53;30.25;;;28.70;;
16856;SDS011;8544;51.312;12.276;2022-07-19T12:39:22;31.67;;;30.08;;
16856;SDS011;8544;51.312;12.276;2022-07-19T12:41:53;33.25;;;31.55;;
16856;SDS011;8544;51.312;12.276;2022-07-19T12:44:23;39.50;;;37.38;;
16856;SDS011;8544;51.312;12.276;2022-07-19T12:46:55;36.88;;;34.88;;
16856;SDS011;8544;51.312;12.276;2022-07-19T12:49:45;34.88;;;32.97;;
16856;SDS011;8544;51.312;12.276;2022-07-19T12:52:14;29.55;;;28.05;;
16856;SDS011;8544;51.312;12.276;2022-07-19T12:54:42;36.97;;;35.08;;
16856;SDS011;8544;51.312;12.276;2022-07-19T12:57:10;38.33;;;36.25;;
16856;SDS011;8544;51.312;12.276;2022-07-19T12:59:40;29.98;;;28.38;;
16856;SDS011;8544;51.312;12.276;2022-07-19T13:02:08;26.13;;;24.80;;
16856;SDS011;8544;51.312;12.276;2022-07-19T13:04:40;21.48;;;20.42;;
16856;SDS011;8544;51.312;12.276;2022-07-19T13:07:09;23.92;;;22.73;;
16856;SDS011;8544;51.312;12.276;2022-07-19T13:09:39;28.60;;;27.13;;
16856;SDS011;8544;51.312;12.276;2022-07-19T13:12:08;30.90;;;29.25;;
16856;SDS011;8544;51.312;12.276;2022-07-19T13:14:36;39.97;;;37.78;;
16856;SDS011;8544;51.312;12.276;2022-07-19T13:17:06;38.13;;;36.08;;
16856;SDS011;8544;51.312;12.276;2022-07-19T13:19:37;35.63;;;32.65;;
16856;SDS011;8544;51.312;12.276;2022-07-19T13:22:06;34.58;;;32.78;;
16856;SDS011;8544;51.312;12.276;2022-07-19T13:24:35;33.65;;;31.95;;
16856;SDS011;8544;51.312;12.276;2022-07-19T13:27:26;29.15;;;27.65;;
16856;SDS011;8544;51.312;12.276;2022-07-19T13:29:59;27.30;;;25.88;;
16856;SDS011;8544;51.312;12.276;2022-07-19T13:32:31;28.70;;;27.25;;
16856;SDS011;8544;51.312;12.276;2022-07-19T13:34:59;32.85;;;31.15;;
16856;SDS011;8544;51.312;12.276;2022-07-19T13:37:28;37.72;;;35.72;;
16856;SDS011;8544;51.312;12.276;2022-07-19T13:40:03;38.05;;;36.05;;
16856;SDS011;8544;51.312;12.276;2022-07-19T13:42:32;45.05;;;42.65;;
16856;SDS011;8544;51.312;12.276;2022-07-19T13:45:06;37.55;;;35.55;;
16856;SDS011;8544;51.312;12.276;2022-07-19T13:47:44;32.55;;;30.75;;
16856;SDS011;8544;51.312;12.276;2022-07-19T13:50:12;27.77;;;26.35;;
16856;SDS011;8544;51.312;12.276;2022-07-19T13:52:46;27.80;;;26.40;;
16856;SDS011;8544;51.312;12.276;2022-07-19T13:55:14;31.77;;;30.13;;
16856;SDS011;8544;51.312;12.276;2022-07-19T13:57:42;34.65;;;32.80;;
16856;SDS011;8544;51.312;12.276;2022-07-19T14:00:11;40.22;;;38.13;;
16856;SDS011;8544;51.312;12.276;2022-07-19T14:02:43;35.00;;;33.17;;
16856;SDS011;8544;51.312;12.276;2022-07-19T14:05:13;34.40;;;32.60;;
16856;SDS011;8544;51.312;12.276;2022-07-19T14:07:41;38.60;;;36.25;;
16856;SDS011;8544;51.312;12.276;2022-07-19T14:10:12;34.10;;;32.30;;
16856;SDS011;8544;51.312;12.276;2022-07-19T14:12:42;42.45;;;40.22;;
16856;SDS011;8544;51.312;12.276;2022-07-19T14:15:12;40.35;;;38.25;;
16856;SDS011;8544;51.312;12.276;2022-07-19T14:17:44;42.00;;;39.78;;
16856;SDS011;8544;51.312;12.276;2022-07-19T14:20:13;42.85;;;40.55;;
16856;SDS011;8544;51.312;12.276;2022-07-19T14:22:50;39.35;;;37.25;;
16856;SDS011;8544;51.312;12.276;2022-07-19T14:25:22;40.85;;;38.67;;
16856;SDS011;8544;51.312;12.276;2022-07-19T14:27:51;33.67;;;31.98;;
16856;SDS011;8544;51.312;12.276;2022-07-19T14:30:19;37.95;;;35.95;;
16856;SDS011;8544;51.312;12.276;2022-07-19T14:32:50;32.90;;;31.20;;
16856;SDS011;8544;51.312;12.276;2022-07-19T14:35:18;34.55;;;32.65;;
16856;SDS011;8544;51.312;12.276;2022-07-19T14:37:49;32.50;;;30.80;;
16856;SDS011;8544;51.312;12.276;2022-07-19T14:40:18;33.25;;;31.55;;
16856;SDS011;8544;51.312;12.276;2022-07-19T14:42:47;25.02;;;23.80;;
16856;SDS011;8544;51.312;12.276;2022-07-19T14:45:16;24.85;;;23.55;;
16856;SDS011;8544;51.312;12.276;2022-07-19T14:47:44;21.60;;;20.52;;
16856;SDS011;8544;51.312;12.276;2022-07-19T14:50:21;22.58;;;21.48;;
16856;SDS011;8544;51.312;12.276;2022-07-19T14:52:50;22.55;;;21.05;;
16856;SDS011;8544;51.312;12.276;2022-07-19T14:55:18;21.80;;;20.73;;
16856;SDS011;8544;51.312;12.276;2022-07-19T14:57:48;22.00;;;20.92;;
16856;SDS011;8544;51.312;12.276;2022-07-19T15:00:17;23.90;;;22.65;;
16856;SDS011;8544;51.312;12.276;2022-07-19T15:02:45;26.70;;;25.35;;